createdAt,value
2022-09-27T00:07:00.083Z,98434.25
2022-09-27T00:17:06.530Z,98427.63
2022-09-27T00:27:11.344Z,98431.84
2022-09-27T00:37:16.603Z,98421.81
2022-09-27T00:47:28.062Z,98425.13
2022-09-27T00:57:33.348Z,98409.97
2022-09-27T01:07:37.413Z,98403.19
2022-09-27T01:17:55.660Z,98397.28
2022-09-27T01:28:21.707Z,98391.38
2022-09-27T01:38:36.247Z,98397.31
2022-09-27T01:48:48.642Z,98393.13
2022-09-27T01:59:02.759Z,98392.19
2022-09-27T02:09:12.740Z,98387.97
2022-09-27T02:19:28.418Z,98386.31
2022-09-27T02:29:40.292Z,98387.13
2022-09-27T02:39:45.526Z,98400.69
2022-09-27T02:50:04.006Z,98399.75
2022-09-27T03:00:15.763Z,98405.72
2022-09-27T03:10:22.567Z,98393.91
2022-09-27T03:20:27.746Z,98413.34
2022-09-27T03:30:31.731Z,98420.88
2022-09-27T03:40:37.088Z,98444.44
2022-09-27T03:50:40.978Z,98442.75
2022-09-27T04:00:47.313Z,98456.09
2022-09-27T04:10:51.158Z,98466.16
2022-09-27T04:20:56.333Z,98476.97
2022-09-27T04:31:00.324Z,98479.41
2022-09-27T04:41:06.865Z,98496.97
2022-09-27T04:51:11.711Z,98502.75
2022-09-27T05:01:17.127Z,98516.16
2022-09-27T05:11:22.293Z,98517.16
2022-09-27T05:21:27.593Z,98537.94
2022-09-27T05:31:33.459Z,98543.53
2022-09-27T05:41:39.987Z,98542.63
2022-09-27T05:51:43.945Z,98564.41
2022-09-27T06:01:49.183Z,98578.88
2022-09-27T06:11:53.628Z,98589.88
2022-09-27T06:21:58.840Z,98591.66
2022-09-27T06:32:03.234Z,98615.19
2022-09-27T06:42:11.079Z,98626.38
2022-09-27T06:52:14.850Z,98628.50
2022-09-27T07:02:23.208Z,98643.81
2022-09-27T07:12:27.692Z,98654.19
2022-09-27T07:22:32.968Z,98670.91
2022-09-27T07:32:37.680Z,98683.69
2022-09-27T07:42:42.782Z,98687.94
2022-09-27T07:52:50.780Z,98696.88
2022-09-27T08:02:55.978Z,98706.31
2022-09-27T08:13:00.952Z,98707.56
2022-09-27T08:23:06.121Z,98707.44
2022-09-27T08:33:10.695Z,98722.78
2022-09-27T08:43:26.935Z,98721.25
2022-09-27T08:53:36.759Z,98732.47
2022-09-27T09:03:48.671Z,98732.53
2022-09-27T09:14:43.635Z,98733.50
2022-09-27T09:25:18.891Z,98740.13
2022-09-27T09:35:28.215Z,98730.63
2022-09-27T09:45:38.122Z,98727.31
2022-09-27T09:55:44.426Z,98720.81
2022-09-27T10:05:49.881Z,98707.25
2022-09-27T10:16:03.400Z,98696.94
2022-09-27T10:26:09.060Z,98688.56
2022-09-27T10:36:26.004Z,98678.44
2022-09-27T10:46:35.060Z,98676.78
2022-09-27T10:56:39.466Z,98664.88
2022-09-27T11:06:47.791Z,98662.34
2022-09-27T11:17:11.797Z,98684.88
2022-09-27T11:27:29.328Z,98672.53
2022-09-27T11:37:52.251Z,98645.31
2022-09-27T11:48:13.894Z,98635.13
2022-09-27T11:58:30.850Z,98623.28
2022-09-27T12:08:50.382Z,98615.66
2022-09-27T12:18:57.086Z,98620.63
2022-09-27T12:29:15.683Z,98599.09
2022-09-27T12:39:23.909Z,98588.09
2022-09-27T12:49:40.983Z,98587.13
2022-09-27T12:59:57.574Z,98573.81
2022-09-27T13:10:31.451Z,98582.81
2022-09-27T13:20:46.305Z,98579.66
2022-09-27T13:30:51.620Z,98591.66
2022-09-27T13:40:56.833Z,98579.03
2022-09-27T13:51:08.939Z,98574.63
2022-09-27T14:01:22.187Z,98576.59
2022-09-27T14:11:31.458Z,98607.25
2022-09-27T14:21:38.206Z,98591.09
2022-09-27T14:31:43.793Z,98591.94
2022-09-27T14:41:47.747Z,98586.84
2022-09-27T14:51:54.793Z,98597.78
2022-09-27T15:02:01.637Z,98597.84
2022-09-27T15:12:14.453Z,98605.56
2022-09-27T15:22:26.813Z,98612.34
2022-09-27T15:32:34.587Z,98613.19
2022-09-27T15:42:58.188Z,98624.97
2022-09-27T15:53:03.958Z,98639.19
2022-09-27T16:03:07.969Z,98652.25
2022-09-27T16:13:13.093Z,98667.38
2022-09-27T16:23:16.811Z,98685.75
2022-09-27T16:33:22.026Z,98707.34
2022-09-27T16:43:28.352Z,98700.28
2022-09-27T16:53:33.387Z,98704.28
2022-09-27T17:03:37.183Z,98723.75
2022-09-27T17:13:42.921Z,98726.28
2022-09-27T17:23:46.707Z,98747.22
2022-09-27T17:33:56.929Z,98737.78
2022-09-27T17:44:02.618Z,98740.38
2022-09-27T17:54:09.974Z,98733.59
2022-09-27T18:04:19.686Z,98759.66
2022-09-27T18:14:26.580Z,98762.25
2022-09-27T18:24:38.937Z,98763.84
2022-09-27T18:34:46.311Z,98763.72
2022-09-27T18:44:50.017Z,98766.94
2022-09-27T18:55:01.967Z,98763.25
2022-09-27T19:05:07.070Z,98771.03
2022-09-27T19:15:17.782Z,98780.28
2022-09-27T19:25:21.429Z,98791.25
2022-09-27T19:35:31.782Z,98797.72
2022-09-27T19:45:37.619Z,98784.13
2022-09-27T19:55:45.368Z,98775.41
2022-09-27T20:05:54.268Z,98776.13
2022-09-27T20:16:05.120Z,98765.00
2022-09-27T20:26:11.764Z,98768.25
2022-09-27T20:36:19.103Z,98757.09
2022-09-27T20:46:26.434Z,98746.69
2022-09-27T20:56:35.040Z,98737.16
2022-09-27T21:06:38.676Z,98743.03
2022-09-27T21:16:43.909Z,98735.31
2022-09-27T21:26:47.494Z,98731.78
2022-09-27T21:36:52.497Z,98727.06
2022-09-27T21:46:57.147Z,98721.88
2022-09-27T21:57:09.977Z,98712.34
2022-09-27T22:07:13.673Z,98700.91
2022-09-27T22:17:18.623Z,98686.44
2022-09-27T22:27:22.279Z,98681.47
2022-09-27T22:37:27.236Z,98669.22
2022-09-27T22:47:30.839Z,98650.31
2022-09-27T22:57:35.859Z,98621.34
2022-09-27T23:07:39.532Z,98603.91
2022-09-27T23:17:47.885Z,98598.91
2022-09-27T23:27:52.810Z,98593.13
2022-09-27T23:37:58.119Z,98568.63
2022-09-27T23:48:03.065Z,98554.28
2022-09-27T23:58:08.111Z,98541.84
